Airfield :







YOU CAN JOIN US ON...

 
LOGIN :

Register | Disclaimer

   EN    FR    IT 

 









Legend :    VFR   Marginal VFR   IFR   Intensive IFR   Very Intensive IFR
Visi :
Ceiling :
>= 8 km
>= 3000ft
5 to 8 km
1000 to 3000 ft
1500m to 5 km
500 to 1000 ft
800 to 1500m
200 to 500 ft
< 800m
< 200 ft
Symbols :   Thunderstorms  Fog  Heavy snow  Heavy precipitations  Wind > 20 kt






- Airport Elevation : 228 ft


KFSO - Franklin County State

CURRENT METAR :
  • 132236Z AUTO 00000KT 10SM CLR 10/06 A2998 RMK AO2 T01020064

EXPIRED METARs :
  • 132216Z AUTO 00000KT 10SM CLR 11/06 A2998 RMK AO2 T01130061
  • 132155Z AUTO 00000KT 10SM CLR 13/06 A2998 RMK AO2 T01330057
  • 132136Z AUTO 00000KT 10SM CLR 16/04 A2999 RMK AO2 T01560042
  • 132115Z AUTO 14003KT 10SM CLR 17/03 A2998 RMK AO2 T01720029
  • 132056Z AUTO 15004KT 10SM CLR 17/02 A2999 RMK AO2 T01740015
  • 132035Z AUTO 15003KT 10SM CLR 18/01 A3000 RMK AO2 T01800012
  • 132016Z AUTO 10003KT 10SM CLR 18/00 A3000 RMK AO2 T01760003
  • 131955Z AUTO 00000KT 10SM CLR 18/02 A3002 RMK AO2 T01760015

TAF N/A



MET'MAP, your aeronautical weather chart ! - Copyright ORBIFLY December 2007 - Disclaimer

ORBIFLY MET'MAP TEAM :

Programming & Development : Alexandra Zaïnal
Concept & Development : Baudouin d'Aumeries
Co-Development & Prog : Marc-Olivier Méhu
Technical & hardware support : Manuel Goepfert

Contact : metmap@orbifly.com




SOURCES & CREDITS :

   NOAA